sensor_id;sensor_type;location;lat;lon;timestamp;pressure;altitude;pressure_sealevel;temperature;humidity
7834;BME280;3962;42.696;23.354;2022-08-19T00:01:29;94968.63;;;22.33;63.28
7834;BME280;3962;42.696;23.354;2022-08-19T00:03:56;94981.59;;;22.31;63.36
7834;BME280;3962;42.696;23.354;2022-08-19T00:06:25;94986.63;;;22.28;63.30
7834;BME280;3962;42.696;23.354;2022-08-19T00:08:57;94986.25;;;22.24;63.70
7834;BME280;3962;42.696;23.354;2022-08-19T00:11:25;94983.03;;;22.16;63.78
7834;BME280;3962;42.696;23.354;2022-08-19T00:13:55;94982.56;;;22.19;64.39
7834;BME280;3962;42.696;23.354;2022-08-19T00:16:23;94988.06;;;22.12;64.33
7834;BME280;3962;42.696;23.354;2022-08-19T00:18:50;94989.56;;;22.08;64.68
7834;BME280;3962;42.696;23.354;2022-08-19T00:21:18;94997.09;;;22.06;64.72
7834;BME280;3962;42.696;23.354;2022-08-19T00:23:45;94994.97;;;22.08;64.85
7834;BME280;3962;42.696;23.354;2022-08-19T00:26:12;94999.97;;;22.11;64.99
7834;BME280;3962;42.696;23.354;2022-08-19T00:28:39;94997.47;;;22.10;65.02
7834;BME280;3962;42.696;23.354;2022-08-19T00:31:10;94997.69;;;22.08;64.94
7834;BME280;3962;42.696;23.354;2022-08-19T00:33:37;95005.69;;;22.03;64.84
7834;BME280;3962;42.696;23.354;2022-08-19T00:36:06;94998.19;;;21.99;65.25
7834;BME280;3962;42.696;23.354;2022-08-19T00:38:34;94990.44;;;22.02;64.50
7834;BME280;3962;42.696;23.354;2022-08-19T00:41:06;94985.94;;;21.96;64.42
7834;BME280;3962;42.696;23.354;2022-08-19T00:43:34;94982.84;;;21.93;64.10
7834;BME280;3962;42.696;23.354;2022-08-19T00:46:01;94986.25;;;21.88;64.65
7834;BME280;3962;42.696;23.354;2022-08-19T00:48:31;94980.06;;;21.81;64.67
7834;BME280;3962;42.696;23.354;2022-08-19T00:51:02;94975.53;;;21.75;64.20
7834;BME280;3962;42.696;23.354;2022-08-19T00:53:31;94976.13;;;21.77;64.31
7834;BME280;3962;42.696;23.354;2022-08-19T00:55:59;94986.13;;;21.77;64.18
7834;BME280;3962;42.696;23.354;2022-08-19T00:58:32;94988.22;;;21.75;63.86
7834;BME280;3962;42.696;23.354;2022-08-19T01:01:00;94980.16;;;21.68;63.72
7834;BME280;3962;42.696;23.354;2022-08-19T01:03:27;94987.28;;;21.63;63.75
7834;BME280;3962;42.696;23.354;2022-08-19T01:05:56;94986.88;;;21.59;63.71
7834;BME280;3962;42.696;23.354;2022-08-19T01:08:24;94990.84;;;21.57;63.73
7834;BME280;3962;42.696;23.354;2022-08-19T01:10:58;94989.25;;;21.49;64.12
7834;BME280;3962;42.696;23.354;2022-08-19T01:13:27;94986.59;;;21.43;65.14
7834;BME280;3962;42.696;23.354;2022-08-19T01:15:58;94990.63;;;21.34;66.46
7834;BME280;3962;42.696;23.354;2022-08-19T01:18:26;94990.69;;;21.27;67.35
7834;BME280;3962;42.696;23.354;2022-08-19T01:20:58;94991.16;;;21.18;68.44
7834;BME280;3962;42.696;23.354;2022-08-19T01:23:29;94993.16;;;20.98;69.36
7834;BME280;3962;42.696;23.354;2022-08-19T01:26:15;94983.44;;;20.84;69.71
7834;BME280;3962;42.696;23.354;2022-08-19T01:28:44;94983.47;;;20.77;70.19
7834;BME280;3962;42.696;23.354;2022-08-19T01:31:16;94985.34;;;20.77;70.25
7834;BME280;3962;42.696;23.354;2022-08-19T01:33:44;94987.44;;;20.75;70.57
7834;BME280;3962;42.696;23.354;2022-08-19T01:36:15;94974.09;;;20.80;70.23
7834;BME280;3962;42.696;23.354;2022-08-19T01:38:44;94977.41;;;20.88;69.97
7834;BME280;3962;42.696;23.354;2022-08-19T01:41:11;94981.75;;;20.89;70.14
7834;BME280;3962;42.696;23.354;2022-08-19T01:43:39;94973.59;;;20.96;69.78
7834;BME280;3962;42.696;23.354;2022-08-19T01:46:06;94981.66;;;21.09;67.74
7834;BME280;3962;42.696;23.354;2022-08-19T01:48:34;94981.06;;;21.31;67.35
7834;BME280;3962;42.696;23.354;2022-08-19T01:51:02;94990.63;;;21.34;68.18
7834;BME280;3962;42.696;23.354;2022-08-19T01:53:29;94985.66;;;21.31;68.07
7834;BME280;3962;42.696;23.354;2022-08-19T01:55:59;94985.72;;;21.24;64.62
7834;BME280;3962;42.696;23.354;2022-08-19T01:58:36;94983.06;;;21.42;63.06
7834;BME280;3962;42.696;23.354;2022-08-19T02:01:06;94989.25;;;21.49;67.00
7834;BME280;3962;42.696;23.354;2022-08-19T02:03:33;94985.50;;;21.50;66.56
7834;BME280;3962;42.696;23.354;2022-08-19T02:06:03;94982.72;;;21.57;66.09
7834;BME280;3962;42.696;23.354;2022-08-19T02:08:35;94991.91;;;21.56;65.74
7834;BME280;3962;42.696;23.354;2022-08-19T02:11:04;94993.94;;;21.60;65.80
7834;BME280;3962;42.696;23.354;2022-08-19T02:13:33;94995.81;;;21.66;64.37
7834;BME280;3962;42.696;23.354;2022-08-19T02:16:01;94996.63;;;21.67;63.95
7834;BME280;3962;42.696;23.354;2022-08-19T02:18:28;94989.13;;;21.69;65.94
7834;BME280;3962;42.696;23.354;2022-08-19T02:20:54;94982.66;;;21.63;66.06
7834;BME280;3962;42.696;23.354;2022-08-19T02:23:21;94991.13;;;21.49;66.93
7834;BME280;3962;42.696;23.354;2022-08-19T02:25:48;94985.81;;;21.36;67.15
7834;BME280;3962;42.696;23.354;2022-08-19T02:28:17;94988.19;;;21.26;67.11
7834;BME280;3962;42.696;23.354;2022-08-19T02:30:45;94991.03;;;21.06;67.82
7834;BME280;3962;42.696;23.354;2022-08-19T02:33:12;94991.13;;;20.87;68.56
7834;BME280;3962;42.696;23.354;2022-08-19T02:35:41;94993.25;;;20.78;68.98
7834;BME280;3962;42.696;23.354;2022-08-19T02:38:08;94991.81;;;20.76;68.72
7834;BME280;3962;42.696;23.354;2022-08-19T02:40:56;94993.06;;;20.73;68.84
7834;BME280;3962;42.696;23.354;2022-08-19T02:43:26;95004.91;;;20.72;68.75
7834;BME280;3962;42.696;23.354;2022-08-19T02:45:54;94998.59;;;20.47;70.21
7834;BME280;3962;42.696;23.354;2022-08-19T02:48:23;94988.25;;;20.25;70.75
7834;BME280;3962;42.696;23.354;2022-08-19T02:50:52;94995.78;;;20.16;71.27
7834;BME280;3962;42.696;23.354;2022-08-19T02:53:21;94995.63;;;20.05;71.91
7834;BME280;3962;42.696;23.354;2022-08-19T02:55:49;95004.13;;;20.08;71.73
7834;BME280;3962;42.696;23.354;2022-08-19T02:58:17;95004.09;;;20.15;72.21
7834;BME280;3962;42.696;23.354;2022-08-19T03:00:48;95005.56;;;20.17;72.04
7834;BME280;3962;42.696;23.354;2022-08-19T03:03:16;94997.63;;;20.29;71.63
7834;BME280;3962;42.696;23.354;2022-08-19T03:05:43;95001.13;;;20.29;71.95
7834;BME280;3962;42.696;23.354;2022-08-19T03:08:11;94998.66;;;20.28;71.54
7834;BME280;3962;42.696;23.354;2022-08-19T03:10:42;95001.38;;;20.28;71.51
7834;BME280;3962;42.696;23.354;2022-08-19T03:13:11;94998.06;;;20.26;71.89
7834;BME280;3962;42.696;23.354;2022-08-19T03:15:39;94992.66;;;20.19;71.96
7834;BME280;3962;42.696;23.354;2022-08-19T03:18:08;94993.09;;;20.10;72.40
7834;BME280;3962;42.696;23.354;2022-08-19T03:20:40;94991.03;;;20.05;72.49
7834;BME280;3962;42.696;23.354;2022-08-19T03:23:07;94990.59;;;20.02;72.62
7834;BME280;3962;42.696;23.354;2022-08-19T03:25:37;94978.16;;;20.07;72.54
7834;BME280;3962;42.696;23.354;2022-08-19T03:28:05;94994.13;;;20.09;72.77
7834;BME280;3962;42.696;23.354;2022-08-19T03:30:33;94994.13;;;20.02;72.96
7834;BME280;3962;42.696;23.354;2022-08-19T03:33:00;94992.47;;;20.01;72.93
7834;BME280;3962;42.696;23.354;2022-08-19T03:35:28;94989.56;;;20.09;73.18
7834;BME280;3962;42.696;23.354;2022-08-19T03:37:55;94999.94;;;20.12;72.61
7834;BME280;3962;42.696;23.354;2022-08-19T03:40:22;94997.06;;;20.07;72.57
7834;BME280;3962;42.696;23.354;2022-08-19T03:42:49;95009.13;;;20.05;73.22
7834;BME280;3962;42.696;23.354;2022-08-19T03:45:18;95007.84;;;20.14;72.98
7834;BME280;3962;42.696;23.354;2022-08-19T03:47:45;95009.28;;;20.23;72.55
7834;BME280;3962;42.696;23.354;2022-08-19T03:50:12;95011.78;;;20.24;72.54
7834;BME280;3962;42.696;23.354;2022-08-19T03:52:40;95012.84;;;20.10;72.81
7834;BME280;3962;42.696;23.354;2022-08-19T03:55:09;95018.88;;;20.06;72.95
7834;BME280;3962;42.696;23.354;2022-08-19T03:57:37;95023.63;;;19.97;73.50
7834;BME280;3962;42.696;23.354;2022-08-19T04:00:05;95028.22;;;19.90;73.59
7834;BME280;3962;42.696;23.354;2022-08-19T04:02:33;95039.22;;;19.89;73.74
7834;BME280;3962;42.696;23.354;2022-08-19T04:05:00;95023.06;;;19.82;73.75
7834;BME280;3962;42.696;23.354;2022-08-19T04:07:27;95040.06;;;19.83;74.20
7834;BME280;3962;42.696;23.354;2022-08-19T04:09:56;95041.09;;;19.82;74.35
7834;BME280;3962;42.696;23.354;2022-08-19T04:12:22;95038.38;;;19.88;74.63
7834;BME280;3962;42.696;23.354;2022-08-19T04:14:49;95035.06;;;19.93;74.31
7834;BME280;3962;42.696;23.354;2022-08-19T04:17:16;95034.88;;;20.07;73.86
7834;BME280;3962;42.696;23.354;2022-08-19T04:19:43;95037.56;;;20.14;73.87
7834;BME280;3962;42.696;23.354;2022-08-19T04:22:10;95044.81;;;20.13;73.39
7834;BME280;3962;42.696;23.354;2022-08-19T04:24:38;95037.34;;;20.15;73.73
7834;BME280;3962;42.696;23.354;2022-08-19T04:27:06;95044.63;;;20.15;73.56
7834;BME280;3962;42.696;23.354;2022-08-19T04:29:33;95046.09;;;20.11;73.85
7834;BME280;3962;42.696;23.354;2022-08-19T04:32:00;95036.94;;;20.12;74.11
7834;BME280;3962;42.696;23.354;2022-08-19T04:34:28;95045.22;;;20.17;73.40
7834;BME280;3962;42.696;23.354;2022-08-19T04:36:57;95045.22;;;20.23;73.26
7834;BME280;3962;42.696;23.354;2022-08-19T04:39:26;95047.31;;;20.28;73.16
7834;BME280;3962;42.696;23.354;2022-08-19T04:42:15;95045.63;;;20.20;73.00
7834;BME280;3962;42.696;23.354;2022-08-19T04:44:59;95044.81;;;20.13;73.12
7834;BME280;3962;42.696;23.354;2022-08-19T04:47:28;95041.69;;;20.03;72.79
7834;BME280;3962;42.696;23.354;2022-08-19T04:49:57;95039.63;;;19.99;73.24
7834;BME280;3962;42.696;23.354;2022-08-19T04:52:24;95044.59;;;20.02;73.15
7834;BME280;3962;42.696;23.354;2022-08-19T04:54:51;95043.59;;;20.03;73.37
7834;BME280;3962;42.696;23.354;2022-08-19T04:57:21;95037.34;;;20.09;73.24
7834;BME280;3962;42.696;23.354;2022-08-19T04:59:48;95043.75;;;20.27;72.90
7834;BME280;3962;42.696;23.354;2022-08-19T05:02:15;95046.88;;;20.31;72.29
7834;BME280;3962;42.696;23.354;2022-08-19T05:04:42;95057.03;;;20.35;72.26
7834;BME280;3962;42.696;23.354;2022-08-19T05:07:09;95053.91;;;20.45;72.21
7834;BME280;3962;42.696;23.354;2022-08-19T05:09:36;95047.25;;;20.47;72.21
7834;BME280;3962;42.696;23.354;2022-08-19T05:12:03;95052.78;;;20.65;71.41
7834;BME280;3962;42.696;23.354;2022-08-19T05:14:33;95048.78;;;20.81;70.96
7834;BME280;3962;42.696;23.354;2022-08-19T05:17:02;95055.63;;;20.90;70.40
7834;BME280;3962;42.696;23.354;2022-08-19T05:19:28;95057.50;;;20.89;70.54
7834;BME280;3962;42.696;23.354;2022-08-19T05:22:13;95048.09;;;20.98;70.52
7834;BME280;3962;42.696;23.354;2022-08-19T05:24:57;95059.44;;;21.13;70.27
7834;BME280;3962;42.696;23.354;2022-08-19T05:27:24;95049.41;;;21.20;69.42
7834;BME280;3962;42.696;23.354;2022-08-19T05:29:53;95057.53;;;21.20;69.74
7834;BME280;3962;42.696;23.354;2022-08-19T05:32:20;95053.56;;;21.23;69.08
7834;BME280;3962;42.696;23.354;2022-08-19T05:34:48;95059.25;;;21.46;68.89
7834;BME280;3962;42.696;23.354;2022-08-19T05:37:15;95051.81;;;21.72;68.32
7834;BME280;3962;42.696;23.354;2022-08-19T05:39:42;95058.47;;;21.94;67.33
7834;BME280;3962;42.696;23.354;2022-08-19T05:42:11;95062.19;;;22.00;66.65
7834;BME280;3962;42.696;23.354;2022-08-19T05:44:40;95056.38;;;21.96;66.91
7834;BME280;3962;42.696;23.354;2022-08-19T05:47:13;95061.13;;;22.01;66.97
7834;BME280;3962;42.696;23.354;2022-08-19T05:49:41;95058.03;;;21.97;66.70
7834;BME280;3962;42.696;23.354;2022-08-19T05:52:10;95065.91;;;22.23;66.21
7834;BME280;3962;42.696;23.354;2022-08-19T05:54:37;95061.25;;;22.55;65.29
7834;BME280;3962;42.696;23.354;2022-08-19T05:57:06;95059.59;;;22.72;64.77
7834;BME280;3962;42.696;23.354;2022-08-19T05:59:33;95058.22;;;22.81;64.44
7834;BME280;3962;42.696;23.354;2022-08-19T06:02:01;95057.69;;;22.72;64.62
7834;BME280;3962;42.696;23.354;2022-08-19T06:04:30;95058.00;;;22.64;64.80
7834;BME280;3962;42.696;23.354;2022-08-19T06:06:57;95052.72;;;22.69;64.42
7834;BME280;3962;42.696;23.354;2022-08-19T06:09:24;95059.41;;;22.85;63.92
7834;BME280;3962;42.696;23.354;2022-08-19T06:11:53;95070.03;;;23.04;63.59
7834;BME280;3962;42.696;23.354;2022-08-19T06:14:25;95058.88;;;22.94;63.14
7834;BME280;3962;42.696;23.354;2022-08-19T06:16:52;95059.84;;;22.99;63.15
7834;BME280;3962;42.696;23.354;2022-08-19T06:19:21;95067.19;;;22.99;63.22
7834;BME280;3962;42.696;23.354;2022-08-19T06:21:51;95072.38;;;23.18;63.09
7834;BME280;3962;42.696;23.354;2022-08-19T06:24:21;95067.44;;;23.45;62.42
7834;BME280;3962;42.696;23.354;2022-08-19T06:26:50;95068.88;;;23.59;61.77
7834;BME280;3962;42.696;23.354;2022-08-19T06:29:20;95067.81;;;23.60;61.47
7834;BME280;3962;42.696;23.354;2022-08-19T06:31:49;95070.19;;;23.56;61.24
7834;BME280;3962;42.696;23.354;2022-08-19T06:34:19;95071.13;;;23.62;61.17
7834;BME280;3962;42.696;23.354;2022-08-19T06:36:48;95073.25;;;23.71;60.44
7834;BME280;3962;42.696;23.354;2022-08-19T06:39:20;95064.44;;;23.76;60.90
7834;BME280;3962;42.696;23.354;2022-08-19T06:41:50;95065.91;;;23.90;60.76
7834;BME280;3962;42.696;23.354;2022-08-19T06:44:19;95062.41;;;24.12;59.84
7834;BME280;3962;42.696;23.354;2022-08-19T06:46:48;95066.88;;;24.30;58.72
7834;BME280;3962;42.696;23.354;2022-08-19T06:49:16;95063.94;;;24.31;58.39
7834;BME280;3962;42.696;23.354;2022-08-19T06:51:45;95059.94;;;24.34;58.36
7834;BME280;3962;42.696;23.354;2022-08-19T06:54:13;95052.34;;;24.47;58.10
7834;BME280;3962;42.696;23.354;2022-08-19T06:56:44;95069.88;;;24.74;57.53
7834;BME280;3962;42.696;23.354;2022-08-19T06:59:13;95071.84;;;24.90;57.26
7834;BME280;3962;42.696;23.354;2022-08-19T07:01:42;95064.97;;;24.99;56.47
7834;BME280;3962;42.696;23.354;2022-08-19T07:04:14;95067.53;;;25.06;56.49
7834;BME280;3962;42.696;23.354;2022-08-19T07:06:43;95072.72;;;25.30;55.92
7834;BME280;3962;42.696;23.354;2022-08-19T07:09:12;95083.19;;;25.50;55.72
7834;BME280;3962;42.696;23.354;2022-08-19T07:11:45;95079.19;;;26.63;53.07
7834;BME280;3962;42.696;23.354;2022-08-19T07:14:14;95088.41;;;27.80;50.00
7834;BME280;3962;42.696;23.354;2022-08-19T07:16:44;95087.41;;;28.44;47.83
7834;BME280;3962;42.696;23.354;2022-08-19T07:19:12;95088.13;;;29.03;46.35
7834;BME280;3962;42.696;23.354;2022-08-19T07:21:40;95089.75;;;29.50;45.26
7834;BME280;3962;42.696;23.354;2022-08-19T07:24:07;95089.03;;;29.90;44.25
7834;BME280;3962;42.696;23.354;2022-08-19T07:26:39;95087.22;;;30.50;43.21
7834;BME280;3962;42.696;23.354;2022-08-19T07:29:07;95089.69;;;30.97;41.92
7834;BME280;3962;42.696;23.354;2022-08-19T07:31:35;95077.31;;;31.04;41.22
7834;BME280;3962;42.696;23.354;2022-08-19T07:34:03;95081.38;;;31.27;41.12
7834;BME280;3962;42.696;23.354;2022-08-19T07:36:34;95081.75;;;30.85;41.62
7834;BME280;3962;42.696;23.354;2022-08-19T07:39:05;95080.28;;;31.38;40.45
7834;BME280;3962;42.696;23.354;2022-08-19T07:41:35;95079.66;;;31.51;40.63
7834;BME280;3962;42.696;23.354;2022-08-19T07:44:03;95079.59;;;31.66;40.45
7834;BME280;3962;42.696;23.354;2022-08-19T07:46:36;95083.59;;;32.41;39.10
7834;BME280;3962;42.696;23.354;2022-08-19T07:49:05;95082.69;;;32.84;38.28
7834;BME280;3962;42.696;23.354;2022-08-19T07:51:34;95077.88;;;32.66;37.70
7834;BME280;3962;42.696;23.354;2022-08-19T07:54:01;95092.88;;;32.50;38.10
7834;BME280;3962;42.696;23.354;2022-08-19T07:56:29;95084.88;;;32.54;38.77
7834;BME280;3962;42.696;23.354;2022-08-19T07:58:56;95082.13;;;32.54;38.75
7834;BME280;3962;42.696;23.354;2022-08-19T08:01:25;95086.00;;;32.53;38.56
7834;BME280;3962;42.696;23.354;2022-08-19T08:03:55;95084.69;;;32.45;38.76
7834;BME280;3962;42.696;23.354;2022-08-19T08:06:40;95081.34;;;33.10;37.17
7834;BME280;3962;42.696;23.354;2022-08-19T08:09:27;95086.34;;;34.02;36.11
7834;BME280;3962;42.696;23.354;2022-08-19T08:11:56;95083.56;;;34.26;35.71
7834;BME280;3962;42.696;23.354;2022-08-19T08:14:26;95082.41;;;34.08;35.95
7834;BME280;3962;42.696;23.354;2022-08-19T08:16:56;95083.22;;;33.90;35.93
7834;BME280;3962;42.696;23.354;2022-08-19T08:19:26;95068.09;;;33.41;36.55
7834;BME280;3962;42.696;23.354;2022-08-19T08:21:54;95066.13;;;33.65;36.09
7834;BME280;3962;42.696;23.354;2022-08-19T08:24:22;95065.13;;;33.56;35.97
7834;BME280;3962;42.696;23.354;2022-08-19T08:26:49;95066.31;;;33.73;35.57
7834;BME280;3962;42.696;23.354;2022-08-19T08:29:16;95068.00;;;33.69;36.34
7834;BME280;3962;42.696;23.354;2022-08-19T08:31:46;95068.16;;;34.20;35.14
7834;BME280;3962;42.696;23.354;2022-08-19T08:34:14;95067.78;;;33.89;35.57
7834;BME280;3962;42.696;23.354;2022-08-19T08:36:45;95062.72;;;33.96;35.10
7834;BME280;3962;42.696;23.354;2022-08-19T08:39:14;95062.91;;;33.81;35.89
7834;BME280;3962;42.696;23.354;2022-08-19T08:41:47;95055.84;;;33.70;35.94
7834;BME280;3962;42.696;23.354;2022-08-19T08:44:22;95060.03;;;34.10;35.02
7834;BME280;3962;42.696;23.354;2022-08-19T08:46:51;95054.31;;;34.25;35.08
7834;BME280;3962;42.696;23.354;2022-08-19T08:49:27;95043.50;;;34.28;35.40
7834;BME280;3962;42.696;23.354;2022-08-19T08:52:02;95046.28;;;33.63;36.05
7834;BME280;3962;42.696;23.354;2022-08-19T08:54:34;95046.50;;;33.90;34.77
7834;BME280;3962;42.696;23.354;2022-08-19T08:57:04;95042.16;;;34.76;34.60
7834;BME280;3962;42.696;23.354;2022-08-19T08:59:36;95044.75;;;35.00;33.13
7834;BME280;3962;42.696;23.354;2022-08-19T09:02:04;95042.50;;;35.47;32.21
7834;BME280;3962;42.696;23.354;2022-08-19T09:04:31;95039.31;;;35.40;31.53
7834;BME280;3962;42.696;23.354;2022-08-19T09:07:10;95037.22;;;35.05;31.66
7834;BME280;3962;42.696;23.354;2022-08-19T09:09:43;95042.22;;;35.03;32.20
7834;BME280;3962;42.696;23.354;2022-08-19T09:12:18;95031.69;;;35.05;32.05
7834;BME280;3962;42.696;23.354;2022-08-19T09:14:49;95033.56;;;35.23;32.54
7834;BME280;3962;42.696;23.354;2022-08-19T09:17:18;95031.31;;;35.25;32.29
7834;BME280;3962;42.696;23.354;2022-08-19T09:19:50;95034.00;;;35.71;31.01
7834;BME280;3962;42.696;23.354;2022-08-19T09:22:19;95030.84;;;35.77;31.43
7834;BME280;3962;42.696;23.354;2022-08-19T09:24:47;95019.53;;;35.20;32.24
7834;BME280;3962;42.696;23.354;2022-08-19T09:27:14;95024.91;;;35.11;31.82
7834;BME280;3962;42.696;23.354;2022-08-19T09:29:41;95019.44;;;34.93;31.82
7834;BME280;3962;42.696;23.354;2022-08-19T09:32:09;95009.50;;;34.78;32.06
7834;BME280;3962;42.696;23.354;2022-08-19T09:34:35;95013.22;;;34.69;31.48
7834;BME280;3962;42.696;23.354;2022-08-19T09:37:02;95014.97;;;35.10;31.16
7834;BME280;3962;42.696;23.354;2022-08-19T09:39:31;95013.69;;;35.35;29.76
7834;BME280;3962;42.696;23.354;2022-08-19T09:41:58;95007.53;;;35.51;29.27
7834;BME280;3962;42.696;23.354;2022-08-19T09:44:25;95000.88;;;35.66;29.16
7834;BME280;3962;42.696;23.354;2022-08-19T09:46:52;94988.91;;;35.30;28.04
7834;BME280;3962;42.696;23.354;2022-08-19T09:49:19;95005.19;;;35.45;29.58
7834;BME280;3962;42.696;23.354;2022-08-19T09:51:49;95006.50;;;35.20;30.24
7834;BME280;3962;42.696;23.354;2022-08-19T09:54:17;95007.38;;;34.89;28.96
7834;BME280;3962;42.696;23.354;2022-08-19T09:56:45;94999.50;;;34.96;29.51
7834;BME280;3962;42.696;23.354;2022-08-19T09:59:12;94997.50;;;35.28;28.38
7834;BME280;3962;42.696;23.354;2022-08-19T10:01:39;94992.28;;;35.27;30.10
7834;BME280;3962;42.696;23.354;2022-08-19T10:04:06;94985.22;;;35.21;29.49
7834;BME280;3962;42.696;23.354;2022-08-19T10:06:36;94989.00;;;35.25;29.03
7834;BME280;3962;42.696;23.354;2022-08-19T10:09:03;94981.22;;;35.27;29.91
7834;BME280;3962;42.696;23.354;2022-08-19T10:11:32;94980.50;;;35.21;29.41
7834;BME280;3962;42.696;23.354;2022-08-19T10:14:00;94974.66;;;35.23;30.04
7834;BME280;3962;42.696;23.354;2022-08-19T10:16:28;94972.31;;;34.71;30.16
7834;BME280;3962;42.696;23.354;2022-08-19T10:18:54;94960.59;;;34.92;30.32
7834;BME280;3962;42.696;23.354;2022-08-19T10:21:24;94972.66;;;34.96;30.52
7834;BME280;3962;42.696;23.354;2022-08-19T10:23:53;94980.50;;;35.21;29.48
7834;BME280;3962;42.696;23.354;2022-08-19T10:26:22;94971.72;;;35.01;29.77
7834;BME280;3962;42.696;23.354;2022-08-19T10:28:50;94973.28;;;34.61;30.00
7834;BME280;3962;42.696;23.354;2022-08-19T10:31:21;94966.03;;;34.65;30.32
7834;BME280;3962;42.696;23.354;2022-08-19T10:33:49;94960.47;;;34.84;30.20
7834;BME280;3962;42.696;23.354;2022-08-19T10:36:24;94961.06;;;34.81;29.59
7834;BME280;3962;42.696;23.354;2022-08-19T10:38:52;94961.16;;;34.76;29.77
7834;BME280;3962;42.696;23.354;2022-08-19T10:41:23;94960.34;;;34.75;30.22
7834;BME280;3962;42.696;23.354;2022-08-19T10:43:51;94950.06;;;34.62;30.81
7834;BME280;3962;42.696;23.354;2022-08-19T10:46:22;94949.19;;;34.80;30.12
7834;BME280;3962;42.696;23.354;2022-08-19T10:48:50;94957.19;;;34.50;30.53
7834;BME280;3962;42.696;23.354;2022-08-19T10:51:17;94960.78;;;34.82;29.96
7834;BME280;3962;42.696;23.354;2022-08-19T10:54:03;94942.88;;;34.93;30.02
7834;BME280;3962;42.696;23.354;2022-08-19T10:56:30;94948.59;;;34.97;29.59
7834;BME280;3962;42.696;23.354;2022-08-19T10:59:15;94943.47;;;35.17;29.85
7834;BME280;3962;42.696;23.354;2022-08-19T11:01:45;94948.03;;;35.27;29.57
7834;BME280;3962;42.696;23.354;2022-08-19T11:04:12;94943.38;;;35.09;30.13
7834;BME280;3962;42.696;23.354;2022-08-19T11:06:43;94944.31;;;35.18;29.44
7834;BME280;3962;42.696;23.354;2022-08-19T11:09:13;94943.31;;;35.41;29.39
7834;BME280;3962;42.696;23.354;2022-08-19T11:11:40;94934.66;;;35.42;29.64
7834;BME280;3962;42.696;23.354;2022-08-19T11:14:08;94937.81;;;35.63;29.12
7834;BME280;3962;42.696;23.354;2022-08-19T11:16:36;94936.31;;;35.30;29.13
7834;BME280;3962;42.696;23.354;2022-08-19T11:19:07;94937.53;;;35.51;29.78
7834;BME280;3962;42.696;23.354;2022-08-19T11:21:36;94932.72;;;35.02;29.80
7834;BME280;3962;42.696;23.354;2022-08-19T11:24:06;94928.00;;;34.76;30.24
7834;BME280;3962;42.696;23.354;2022-08-19T11:26:35;94931.97;;;34.70;30.62
7834;BME280;3962;42.696;23.354;2022-08-19T11:29:03;94927.59;;;35.09;30.53
7834;BME280;3962;42.696;23.354;2022-08-19T11:31:33;94922.41;;;35.84;29.52
7834;BME280;3962;42.696;23.354;2022-08-19T11:34:06;94929.19;;;35.78;28.99
7834;BME280;3962;42.696;23.354;2022-08-19T11:36:34;94920.75;;;35.20;29.26
7834;BME280;3962;42.696;23.354;2022-08-19T11:39:04;94912.66;;;34.83;30.35
7834;BME280;3962;42.696;23.354;2022-08-19T11:41:32;94922.72;;;35.20;29.47
7834;BME280;3962;42.696;23.354;2022-08-19T11:43:59;94915.63;;;35.41;29.37
7834;BME280;3962;42.696;23.354;2022-08-19T11:46:26;94909.75;;;35.69;29.24
7834;BME280;3962;42.696;23.354;2022-08-19T11:48:54;94907.50;;;35.93;29.04
7834;BME280;3962;42.696;23.354;2022-08-19T11:51:24;94908.91;;;36.04;29.07
7834;BME280;3962;42.696;23.354;2022-08-19T11:53:52;94908.09;;;36.04;29.59
7834;BME280;3962;42.696;23.354;2022-08-19T11:56:20;94905.84;;;35.70;29.34
7834;BME280;3962;42.696;23.354;2022-08-19T11:58:47;94901.06;;;36.06;29.06
7834;BME280;3962;42.696;23.354;2022-08-19T12:01:16;94896.25;;;35.90;29.25
7834;BME280;3962;42.696;23.354;2022-08-19T12:03:44;94892.84;;;35.93;28.92
7834;BME280;3962;42.696;23.354;2022-08-19T12:06:15;94890.44;;;36.00;29.33
7834;BME280;3962;42.696;23.354;2022-08-19T12:08:44;94887.91;;;36.25;28.68
7834;BME280;3962;42.696;23.354;2022-08-19T12:11:12;94877.09;;;36.15;28.51
7834;BME280;3962;42.696;23.354;2022-08-19T12:13:40;94876.72;;;36.39;28.01
7834;BME280;3962;42.696;23.354;2022-08-19T12:16:14;94870.81;;;36.10;29.24
7834;BME280;3962;42.696;23.354;2022-08-19T12:18:42;94867.31;;;36.18;28.92
7834;BME280;3962;42.696;23.354;2022-08-19T12:21:11;94880.69;;;36.02;28.54
7834;BME280;3962;42.696;23.354;2022-08-19T12:23:39;94857.41;;;36.03;28.38
7834;BME280;3962;42.696;23.354;2022-08-19T12:26:09;94862.06;;;35.94;29.40
7834;BME280;3962;42.696;23.354;2022-08-19T12:28:36;94866.78;;;35.94;28.71
7834;BME280;3962;42.696;23.354;2022-08-19T12:31:03;94851.22;;;36.20;28.99
7834;BME280;3962;42.696;23.354;2022-08-19T12:33:30;94860.16;;;36.47;28.08
7834;BME280;3962;42.696;23.354;2022-08-19T12:36:01;94853.69;;;36.30;28.11
7834;BME280;3962;42.696;23.354;2022-08-19T12:38:28;94857.88;;;36.49;28.67
7834;BME280;3962;42.696;23.354;2022-08-19T12:40:55;94853.97;;;36.50;28.78
7834;BME280;3962;42.696;23.354;2022-08-19T12:43:24;94852.63;;;36.39;28.57
7834;BME280;3962;42.696;23.354;2022-08-19T12:45:51;94845.38;;;36.08;28.51
7834;BME280;3962;42.696;23.354;2022-08-19T12:48:18;94841.00;;;36.37;28.42
7834;BME280;3962;42.696;23.354;2022-08-19T12:50:45;94842.22;;;36.45;28.70
7834;BME280;3962;42.696;23.354;2022-08-19T12:53:12;94837.31;;;36.81;29.17
7834;BME280;3962;42.696;23.354;2022-08-19T12:55:39;94833.75;;;36.50;29.65
7834;BME280;3962;42.696;23.354;2022-08-19T12:58:08;94838.53;;;36.27;29.66
7834;BME280;3962;42.696;23.354;2022-08-19T13:00:36;94833.25;;;35.95;29.73
7834;BME280;3962;42.696;23.354;2022-08-19T13:03:03;94838.13;;;36.42;28.93
7834;BME280;3962;42.696;23.354;2022-08-19T13:05:31;94832.59;;;35.98;28.94
7834;BME280;3962;42.696;23.354;2022-08-19T13:07:59;94835.00;;;35.91;29.49
7834;BME280;3962;42.696;23.354;2022-08-19T13:10:31;94834.25;;;36.21;28.54
7834;BME280;3962;42.696;23.354;2022-08-19T13:13:00;94830.69;;;36.29;28.92
7834;BME280;3962;42.696;23.354;2022-08-19T13:15:28;94832.84;;;36.10;28.80
7834;BME280;3962;42.696;23.354;2022-08-19T13:17:58;94834.38;;;35.94;28.74
7834;BME280;3962;42.696;23.354;2022-08-19T13:20:25;94830.34;;;36.22;28.61